KDUX

Moore County Airport

Dumas, Texas, USA
METAR KDUX 201915Z AUTO 03005KT 10SM CLR 19/M01 A3041 RMK AO2 T01851006
Observed Flight Rules
Oct-20 @ 19:15 UTC (10 minutes ago) Visual Flight Rules
Wind Visibility Clouds
30° at 5 knots 10 miles
  • Clear skies
Temperatures Readings
Current 19°C / 66°F
Dewpoint -1°C / 30°F
Humidity 26%
Altimeter 30.41" Hg
Pressure 1030 hPa
Elevation 1129
METAR KDUX 201915Z AUTO 03005KT 10SM CLR 19/M01 A3041 RMK AO2 T01851006
Observed Flight Rules
Oct-20 @ 19:15 UTC
(10 minutes ago)
VFR
Wind Visibility
30° at 5 knots 10 miles
Clouds
  • Clear skies
Temperature Dewpoint
19°C / 66°F -1°C / 30°F
Humidity Altimeter Pressure
26% 30.41" Hg 1030 hPa